Time;durP1;ratioP1;P1;durP2;ratioP2;P2;SDS_P1;SDS_P2;PMS_P1;PMS_P2;Temp;Humidity;BMP_temperature;BMP_pressure;BME280_temperature;BME280_humidity;BME280_pressure;Samples;Min_cycle;Max_cycle;Signal;HPM_P1;HPM_P2
2021/05/02 00:01:56;;;;;;;2.42;0.70;;;8.10;99.90;;;;;;5033891;28;20375;-74
2021/05/02 00:04:22;;;;;;;2.55;1.10;;;8.10;99.90;;;;;;5035812;28;20386;-74
2021/05/02 00:06:48;;;;;;;1.70;0.40;;;8.10;99.90;;;;;;5034583;28;20496;-74
2021/05/02 00:09:13;;;;;;;0.70;0.38;;;8.10;99.90;;;;;;5028858;28;20030;-74
2021/05/02 00:11:39;;;;;;;8.15;4.55;;;8.10;99.90;;;;;;5036842;28;20033;-74
2021/05/02 00:14:05;;;;;;;4.03;1.90;;;8.10;99.90;;;;;;5031161;28;20049;-74
2021/05/02 00:16:31;;;;;;;5.00;1.80;;;8.10;99.90;;;;;;5033682;28;20530;-74
2021/05/02 00:18:57;;;;;;;4.55;0.80;;;8.00;99.90;;;;;;5033598;28;20103;-74
2021/05/02 00:21:24;;;;;;;1.42;0.60;;;8.10;99.90;;;;;;5034714;28;20476;-74
2021/05/02 00:23:50;;;;;;;7.82;2.67;;;8.00;99.90;;;;;;5033044;28;20381;-74
2021/05/02 00:26:17;;;;;;;10.15;5.82;;;8.00;99.90;;;;;;5032695;28;20037;-74
2021/05/02 00:28:48;;;;;;;5.35;2.10;;;8.10;99.90;;;;;;5035253;28;20029;-74
2021/05/02 00:31:15;;;;;;;1.73;0.60;;;7.90;99.90;;;;;;5031621;28;20034;-73
2021/05/02 00:33:43;;;;;;;3.85;0.32;;;7.90;99.90;;;;;;5031339;28;20496;-74
2021/05/02 00:36:10;;;;;;;2.92;0.55;;;8.00;99.90;;;;;;5036046;28;20025;-74
2021/05/02 00:38:37;;;;;;;0.73;0.17;;;8.00;99.90;;;;;;5036240;28;20467;-73
2021/05/02 00:41:12;;;;;;;0.60;0.30;;;8.00;99.90;;;;;;5034374;28;20426;-73
2021/05/02 00:43:57;;;;;;;1.27;0.30;;;8.00;99.90;;;;;;5027077;28;20408;-73
2021/05/02 00:46:45;;;;;;;1.77;0.20;;;8.00;99.90;;;;;;5033515;28;20080;-73
2021/05/02 00:49:17;;;;;;;1.48;0.20;;;8.00;99.90;;;;;;5015141;28;20057;-74
2021/05/02 00:51:47;;;;;;;0.90;0.43;;;8.00;99.90;;;;;;5015635;28;20468;-73
2021/05/02 00:54:37;;;;;;;1.95;0.80;;;8.00;99.90;;;;;;5031128;28;20064;-73
2021/05/02 00:57:08;;;;;;;2.20;0.70;;;8.00;99.90;;;;;;5034545;28;20080;-74
2021/05/02 00:59:44;;;;;;;1.15;0.40;;;8.00;99.90;;;;;;5031148;28;20034;-74
2021/05/02 01:02:14;;;;;;;1.17;0.40;;;8.00;99.90;;;;;;5032106;28;20033;-74
2021/05/02 01:04:42;;;;;;;1.40;0.40;;;8.00;99.90;;;;;;5033195;28;20099;-73
2021/05/02 01:07:17;;;;;;;0.80;0.30;;;8.00;99.90;;;;;;5037930;28;20029;-74
2021/05/02 01:09:43;;;;;;;2.53;0.50;;;8.00;99.90;;;;;;5037856;28;20103;-74
2021/05/02 01:12:11;;;;;;;0.70;0.30;;;8.00;99.90;;;;;;5038449;28;20029;-74
2021/05/02 01:14:44;;;;;;;1.02;0.40;;;8.00;99.90;;;;;;5033749;28;20067;-74
2021/05/02 01:17:11;;;;;;;;;;;8.00;99.90;;;;;;5035853;28;20037;-74
2021/05/02 01:19:36;;;;;;;1.00;0.35;;;8.00;99.90;;;;;;5035634;28;19955;-74
2021/05/02 01:22:10;;;;;;;1.63;0.40;;;;;;;;;;5020197;28;20041;-74
2021/05/02 01:24:36;;;;;;;3.45;0.57;;;7.90;99.90;;;;;;5033790;28;20029;-74
2021/05/02 01:27:02;;;;;;;1.73;0.60;;;7.90;99.90;;;;;;5040148;28;20044;-74
2021/05/02 01:29:28;;;;;;;1.60;0.50;;;8.00;99.90;;;;;;5034134;28;20147;-74
2021/05/02 01:31:54;;;;;;;2.60;0.65;;;7.90;99.90;;;;;;5030719;28;20040;-73
2021/05/02 01:34:20;;;;;;;2.22;0.52;;;7.90;99.90;;;;;;5037335;28;20041;-73
2021/05/02 01:36:46;;;;;;;1.20;0.38;;;8.00;99.90;;;;;;5033531;28;20029;-73
2021/05/02 01:39:12;;;;;;;1.77;0.40;;;8.00;99.90;;;;;;5018097;28;20044;-73
2021/05/02 01:41:38;;;;;;;0.77;0.30;;;8.00;99.90;;;;;;5037299;28;20130;-74
2021/05/02 01:44:05;;;;;;;1.67;0.40;;;8.00;99.90;;;;;;5037805;28;20041;-73
2021/05/02 01:46:38;;;;;;;1.02;0.30;;;8.00;99.90;;;;;;5036967;28;20533;-73
2021/05/02 01:49:09;;;;;;;0.88;0.30;;;8.00;99.90;;;;;;5038679;28;20032;-73
2021/05/02 01:51:36;;;;;;;0.85;0.30;;;8.00;99.90;;;;;;5034771;28;20053;-73
2021/05/02 01:54:02;;;;;;;2.65;0.60;;;8.00;99.90;;;;;;5019247;28;20045;-73
2021/05/02 01:56:30;;;;;;;3.20;0.50;;;8.00;99.90;;;;;;5008742;28;20446;-74
2021/05/02 01:58:58;;;;;;;1.73;0.57;;;8.00;99.90;;;;;;5035598;28;20029;-74
2021/05/02 02:01:26;;;;;;;4.43;0.70;;;8.10;99.90;;;;;;5032282;28;20021;-74
2021/05/02 02:03:54;;;;;;;2.35;0.65;;;8.10;99.90;;;;;;5038108;28;20120;-74
2021/05/02 02:06:20;;;;;;;2.53;0.95;;;8.00;99.90;;;;;;5030598;28;20037;-74
2021/05/02 02:08:46;;;;;;;2.92;0.88;;;8.10;99.90;;;;;;5036537;28;20044;-74
2021/05/02 02:11:12;;;;;;;6.57;1.90;;;8.10;99.90;;;;;;5019266;28;20047;-74
2021/05/02 02:13:37;;;;;;;3.10;1.00;;;8.10;99.90;;;;;;5032276;28;20025;-74
2021/05/02 02:16:05;;;;;;;3.60;0.93;;;8.10;99.90;;;;;;5034795;28;20032;-74
2021/05/02 02:18:31;;;;;;;4.93;0.93;;;8.10;99.90;;;;;;5031820;28;20025;-74
2021/05/02 02:20:58;;;;;;;2.53;0.80;;;8.10;99.90;;;;;;5034693;28;20051;-74
2021/05/02 02:23:33;;;;;;;2.85;0.70;;;8.00;99.90;;;;;;5032549;28;20017;-73
2021/05/02 02:26:14;;;;;;;1.50;0.65;;;8.00;99.90;;;;;;5037508;28;20924;-74
2021/05/02 02:28:40;;;;;;;2.75;0.93;;;8.00;99.90;;;;;;5033091;28;20511;-74
2021/05/02 02:31:07;;;;;;;1.55;0.70;;;7.90;99.90;;;;;;5038741;28;20692;-74
2021/05/02 02:33:34;;;;;;;4.70;0.70;;;8.00;99.90;;;;;;5033085;28;20378;-74
2021/05/02 02:36:01;;;;;;;2.90;1.20;;;7.90;99.90;;;;;;5015643;28;20415;-74
2021/05/02 02:38:28;;;;;;;2.63;0.90;;;7.90;99.90;;;;;;5034583;28;20021;-74
2021/05/02 02:40:56;;;;;;;3.35;0.70;;;7.90;99.90;;;;;;5032766;28;20561;-74
2021/05/02 02:43:25;;;;;;;3.25;1.00;;;7.90;99.90;;;;;;5032307;28;20026;-74
2021/05/02 02:45:56;;;;;;;2.92;0.70;;;8.00;99.90;;;;;;5039310;28;20607;-74
2021/05/02 02:48:25;;;;;;;2.67;0.80;;;8.00;99.90;;;;;;5028031;28;20041;-74
2021/05/02 02:50:55;;;;;;;4.13;0.93;;;8.00;99.90;;;;;;5037983;28;20041;-74
2021/05/02 02:53:21;;;;;;;1.00;0.40;;;8.00;99.90;;;;;;5029552;28;20041;-74
2021/05/02 02:56:08;;;;;;;1.70;0.60;;;8.00;99.90;;;;;;5032846;28;20452;-74
2021/05/02 02:59:11;;;;;;;2.17;0.80;;;8.00;99.90;;;;;;5032000;28;20283;-74
2021/05/02 03:01:41;;;;;;;2.65;0.40;;;8.00;99.90;;;;;;5036041;28;20542;-74
2021/05/02 03:04:10;;;;;;;2.20;0.60;;;8.00;99.90;;;;;;5028467;28;20522;-74
2021/05/02 03:06:36;;;;;;;1.48;0.50;;;8.00;99.90;;;;;;5032864;28;20516;-74
2021/05/02 03:09:02;;;;;;;1.33;0.30;;;8.00;99.90;;;;;;5030181;28;20037;-74
2021/05/02 03:11:28;;;;;;;1.10;0.50;;;7.90;99.90;;;;;;5037488;28;20114;-74
2021/05/02 03:13:54;;;;;;;4.55;0.50;;;7.90;99.90;;;;;;5020571;28;20124;-74
2021/05/02 03:16:24;;;;;;;2.45;0.50;;;7.80;99.90;;;;;;5036295;28;20101;-74
2021/05/02 03:19:08;;;;;;;1.08;0.47;;;7.80;99.90;;;;;;5034257;28;20061;-73
2021/05/02 03:21:42;;;;;;;2.60;0.70;;;7.80;99.90;;;;;;5033646;28;20033;-74
2021/05/02 03:24:12;;;;;;;1.30;0.57;;;7.80;99.90;;;;;;5035062;28;20112;-73
2021/05/02 03:26:38;;;;;;;2.13;0.90;;;7.80;99.90;;;;;;5037851;28;20029;-74
2021/05/02 03:29:04;;;;;;;2.90;0.80;;;7.80;99.90;;;;;;5039126;28;20033;-74
2021/05/02 03:31:32;;;;;;;2.33;0.70;;;7.80;99.90;;;;;;5017110;28;20384;-74
2021/05/02 03:34:04;;;;;;;3.78;0.70;;;7.80;99.90;;;;;;5036256;28;20037;-74
2021/05/02 03:36:39;;;;;;;2.45;0.70;;;7.90;99.90;;;;;;5032236;28;20075;-74
2021/05/02 03:39:05;;;;;;;1.40;0.50;;;7.90;99.90;;;;;;5016748;28;20446;-74
2021/05/02 03:41:35;;;;;;;1.55;0.50;;;7.90;99.90;;;;;;5031428;28;20033;-74
2021/05/02 03:44:01;;;;;;;1.65;0.47;;;7.90;99.90;;;;;;5038296;28;20033;-74
2021/05/02 03:46:27;;;;;;;2.40;0.40;;;8.00;99.90;;;;;;5031141;28;20044;-73
2021/05/02 03:48:58;;;;;;;6.25;0.40;;;8.00;99.90;;;;;;5030681;28;20087;-74
2021/05/02 03:51:25;;;;;;;1.05;0.30;;;7.90;99.90;;;;;;5034227;28;20052;-74
2021/05/02 03:53:52;;;;;;;1.42;0.40;;;7.90;99.90;;;;;;5030685;28;20041;-74
2021/05/02 03:56:33;;;;;;;0.80;0.20;;;7.90;99.90;;;;;;5039413;28;20033;-74
2021/05/02 03:59:15;;;;;;;0.57;0.20;;;7.90;99.90;;;;;;5030265;28;20538;-74
2021/05/02 04:01:48;;;;;;;1.08;0.20;;;7.80;99.90;;;;;;5033870;28;20083;-74
2021/05/02 04:04:16;;;;;;;0.75;0.20;;;7.80;99.90;;;;;;5020056;28;20033;-74
2021/05/02 04:06:42;;;;;;;0.77;0.20;;;7.80;99.90;;;;;;5030382;28;20390;-74
2021/05/02 04:09:10;;;;;;;0.45;0.17;;;7.70;99.90;;;;;;5033338;28;20029;-74
2021/05/02 04:11:35;;;;;;;1.13;0.20;;;7.80;99.90;;;;;;5032915;28;20029;-74
2021/05/02 04:14:06;;;;;;;0.82;0.40;;;7.80;99.90;;;;;;5032442;28;20441;-74
2021/05/02 04:16:32;;;;;;;1.23;0.20;;;7.80;99.90;;;;;;5032547;28;20036;-74
2021/05/02 04:18:58;;;;;;;1.08;0.17;;;7.80;99.90;;;;;;5036776;28;20030;-74
2021/05/02 04:21:24;;;;;;;1.95;0.30;;;7.80;99.90;;;;;;5029286;28;20146;-74
2021/05/02 04:23:50;;;;;;;1.40;0.30;;;7.80;99.90;;;;;;5030960;28;20536;-74
2021/05/02 04:26:16;;;;;;;1.00;0.20;;;7.80;99.90;;;;;;5034454;28;20075;-74
2021/05/02 04:28:42;;;;;;;2.17;0.20;;;7.80;99.90;;;;;;5030868;28;20053;-74
2021/05/02 04:31:08;;;;;;;1.13;0.20;;;7.80;99.90;;;;;;5033902;28;20391;-74
2021/05/02 04:33:33;;;;;;;0.95;0.20;;;7.70;99.90;;;;;;5031001;28;20056;-74
2021/05/02 04:35:59;;;;;;;1.02;0.20;;;7.70;99.90;;;;;;5030377;28;20429;-74
2021/05/02 04:38:24;;;;;;;2.70;0.30;;;7.70;99.90;;;;;;5034506;28;20453;-74
2021/05/02 04:40:50;;;;;;;2.38;0.30;;;7.70;99.90;;;;;;5026729;28;20045;-74
2021/05/02 04:43:16;;;;;;;1.50;0.80;;;7.70;99.90;;;;;;5035890;28;20423;-74
2021/05/02 04:45:41;;;;;;;3.08;0.70;;;7.80;99.90;;;;;;5038979;28;20053;-74
2021/05/02 04:48:08;;;;;;;1.25;0.50;;;7.80;99.90;;;;;;5037705;28;20091;-74
2021/05/02 04:50:33;;;;;;;2.40;0.60;;;7.70;99.90;;;;;;5036574;28;20494;-74
2021/05/02 04:53:03;;;;;;;1.60;0.60;;;7.70;99.90;;;;;;5039194;28;20029;-74
2021/05/02 04:55:29;;;;;;;1.75;0.75;;;7.70;99.90;;;;;;5035369;28;20458;-74
2021/05/02 04:57:57;;;;;;;1.48;0.50;;;7.70;99.90;;;;;;5035176;28;20070;-74
2021/05/02 05:00:24;;;;;;;2.05;0.50;;;7.70;99.90;;;;;;5033929;28;20040;-74
2021/05/02 05:02:50;;;;;;;1.80;0.55;;;7.70;99.90;;;;;;5034117;28;20064;-74
2021/05/02 05:05:16;;;;;;;3.10;1.10;;;7.80;99.90;;;;;;5041417;28;20060;-74
2021/05/02 05:07:41;;;;;;;2.58;0.93;;;7.80;99.90;;;;;;5035633;28;20033;-74
2021/05/02 05:10:08;;;;;;;2.15;0.80;;;7.80;99.90;;;;;;5017693;28;20413;-74
2021/05/02 05:12:37;;;;;;;1.58;0.60;;;7.70;99.90;;;;;;5037172;28;20111;-74
2021/05/02 05:15:04;;;;;;;2.25;0.73;;;7.70;99.90;;;;;;5035987;28;20073;-74
2021/05/02 05:17:30;;;;;;;1.67;0.50;;;7.80;99.90;;;;;;5035018;28;20653;-74
2021/05/02 05:19:55;;;;;;;1.65;0.50;;;7.80;99.90;;;;;;5033465;28;20042;-74
2021/05/02 05:22:21;;;;;;;2.78;0.60;;;7.80;99.90;;;;;;5032673;28;20024;-74
2021/05/02 05:24:47;;;;;;;1.88;0.52;;;7.80;99.90;;;;;;5036711;28;20034;-74
2021/05/02 05:27:13;;;;;;;1.33;0.60;;;7.80;99.90;;;;;;5040915;28;20021;-74
2021/05/02 05:29:38;;;;;;;1.55;0.90;;;7.80;99.90;;;;;;5021968;28;20041;-73
2021/05/02 05:32:04;;;;;;;2.90;0.70;;;7.90;99.90;;;;;;5037619;28;20600;-74
2021/05/02 05:34:31;;;;;;;4.43;0.88;;;7.80;99.90;;;;;;5033739;28;20042;-74
2021/05/02 05:36:58;;;;;;;2.03;0.90;;;7.80;99.90;;;;;;5029331;28;20029;-75
2021/05/02 05:39:24;;;;;;;2.25;1.10;;;7.90;99.90;;;;;;5037884;28;20044;-74
2021/05/02 05:41:49;;;;;;;2.55;1.08;;;7.90;99.90;;;;;;5037462;28;20484;-74
2021/05/02 05:44:15;;;;;;;3.25;0.93;;;7.90;99.90;;;;;;5021656;28;20038;-74
2021/05/02 05:46:41;;;;;;;2.53;1.00;;;7.90;99.90;;;;;;5042896;28;20040;-74
2021/05/02 05:49:07;;;;;;;3.13;1.35;;;7.90;99.90;;;;;;5038807;28;20048;-74
2021/05/02 05:51:33;;;;;;;3.10;1.65;;;8.00;99.90;;;;;;5033762;28;20076;-74
2021/05/02 05:53:58;;;;;;;3.00;1.60;;;8.10;99.90;;;;;;5037995;28;20556;-74
2021/05/02 05:56:24;;;;;;;4.70;1.90;;;8.10;99.90;;;;;;5020495;28;20037;-74
2021/05/02 05:58:49;;;;;;;4.22;2.58;;;8.10;99.90;;;;;;5021668;28;20363;-74
2021/05/02 06:01:15;;;;;;;8.50;2.28;;;8.20;99.90;;;;;;5018522;28;20029;-74
2021/05/02 06:03:41;;;;;;;4.65;1.98;;;8.20;99.90;;;;;;5031958;28;20029;-74
2021/05/02 06:06:07;;;;;;;5.22;2.33;;;8.20;99.90;;;;;;5033459;28;20029;-74
2021/05/02 06:08:33;;;;;;;3.55;1.50;;;8.30;99.90;;;;;;5034193;28;20272;-74
2021/05/02 06:10:58;;;;;;;2.85;1.50;;;8.40;99.90;;;;;;5034308;28;20037;-74
2021/05/02 06:13:24;;;;;;;3.95;1.48;;;8.50;99.90;;;;;;5031282;28;20033;-74
2021/05/02 06:15:50;;;;;;;2.58;1.20;;;8.60;99.90;;;;;;5032573;28;20041;-74
2021/05/02 06:18:15;;;;;;;5.82;1.52;;;8.70;99.90;;;;;;5033126;28;20040;-74
2021/05/02 06:20:41;;;;;;;4.80;1.30;;;8.80;99.90;;;;;;5037136;28;20032;-74
2021/05/02 06:23:06;;;;;;;2.92;1.30;;;8.80;99.90;;;;;;5039179;28;20033;-74
2021/05/02 06:25:32;;;;;;;4.18;0.88;;;8.80;99.90;;;;;;5037877;28;20030;-74
2021/05/02 06:27:59;;;;;;;4.05;0.60;;;8.90;99.90;;;;;;5036189;28;20044;-74
2021/05/02 06:30:25;;;;;;;4.03;0.90;;;8.90;99.90;;;;;;5029550;28;20029;-74
2021/05/02 06:32:51;;;;;;;1.70;0.75;;;9.00;99.90;;;;;;5016707;28;20086;-74
2021/05/02 06:35:17;;;;;;;1.95;0.70;;;9.20;99.90;;;;;;5031905;28;20037;-74
2021/05/02 06:37:42;;;;;;;3.85;0.80;;;9.10;99.90;;;;;;5038463;28;20033;-74
2021/05/02 06:40:09;;;;;;;1.90;0.68;;;9.20;99.90;;;;;;5034868;28;20056;-74
2021/05/02 06:42:34;;;;;;;1.67;0.77;;;9.30;99.90;;;;;;5035151;28;20528;-74
2021/05/02 06:45:00;;;;;;;2.53;0.90;;;9.10;99.90;;;;;;5030075;28;20053;-74
2021/05/02 06:47:26;;;;;;;3.90;1.45;;;9.00;99.90;;;;;;5034122;28;20540;-74
2021/05/02 06:49:52;;;;;;;4.88;1.88;;;9.10;99.90;;;;;;5035428;28;20067;-74
2021/05/02 06:52:18;;;;;;;4.35;2.08;;;9.20;99.90;;;;;;5033461;28;20113;-74
2021/05/02 06:54:44;;;;;;;3.67;2.03;;;9.00;99.90;;;;;;5033883;28;20063;-74
2021/05/02 06:57:10;;;;;;;4.63;2.83;;;8.80;99.90;;;;;;5036568;28;20156;-74
2021/05/02 06:59:36;;;;;;;5.25;3.15;;;8.90;99.90;;;;;;5033252;28;20463;-74
2021/05/02 07:02:02;;;;;;;5.38;3.35;;;8.80;99.90;;;;;;5038949;28;20029;-75
2021/05/02 07:04:31;;;;;;;4.80;3.20;;;9.10;99.90;;;;;;5037258;28;20113;-75
2021/05/02 07:06:57;;;;;;;5.57;2.63;;;9.20;99.90;;;;;;5036774;28;20288;-75
2021/05/02 07:09:23;;;;;;;5.22;3.30;;;9.30;99.90;;;;;;5039239;28;20271;-75
2021/05/02 07:11:48;;;;;;;5.20;3.20;;;9.50;99.90;;;;;;5039901;28;20038;-75
2021/05/02 07:14:14;;;;;;;8.68;4.22;;;9.70;99.90;;;;;;5034386;28;20044;-75
2021/05/02 07:16:40;;;;;;;6.22;4.53;;;9.80;99.90;;;;;;5029924;28;20032;-75
2021/05/02 07:19:05;;;;;;;7.07;4.32;;;9.60;99.90;;;;;;5030849;28;20041;-75
2021/05/02 07:21:31;;;;;;;7.50;4.90;;;9.40;99.90;;;;;;5030401;28;20136;-75
2021/05/02 07:23:57;;;;;;;4.75;3.22;;;9.30;99.90;;;;;;5039344;28;20037;-74
2021/05/02 07:26:23;;;;;;;4.93;2.95;;;9.40;99.90;;;;;;5046846;28;20756;-74
2021/05/02 07:28:50;;;;;;;7.05;3.35;;;9.20;99.90;;;;;;5044837;28;20075;-74
2021/05/02 07:31:16;;;;;;;5.18;3.40;;;9.20;99.90;;;;;;5042876;28;20580;-74
2021/05/02 07:33:42;;;;;;;5.03;3.00;;;9.30;99.90;;;;;;5041263;28;20025;-74
2021/05/02 07:36:08;;;;;;;5.80;3.17;;;9.50;99.90;;;;;;5042472;28;20056;-74
2021/05/02 07:38:34;;;;;;;6.22;3.63;;;9.50;99.90;;;;;;5036673;28;20029;-74
2021/05/02 07:41:01;;;;;;;5.65;3.72;;;10.10;99.90;;;;;;5035236;28;20557;-74
2021/05/02 07:43:27;;;;;;;5.40;3.67;;;10.70;99.90;;;;;;5039519;28;20021;-74
2021/05/02 07:45:52;;;;;;;6.10;3.72;;;11.10;99.90;;;;;;5025458;28;20068;-74
2021/05/02 07:48:18;;;;;;;6.40;3.58;;;11.30;99.90;;;;;;5037901;28;20056;-74
2021/05/02 07:50:44;;;;;;;6.22;4.03;;;11.40;99.90;;;;;;5034145;28;20037;-75
2021/05/02 07:53:10;;;;;;;6.78;4.10;;;11.50;99.90;;;;;;5039148;28;20474;-75
2021/05/02 07:55:36;;;;;;;6.72;4.25;;;11.60;99.90;;;;;;5034915;28;20807;-74
2021/05/02 07:58:01;;;;;;;8.20;4.70;;;11.70;99.90;;;;;;5038373;28;20032;-74
2021/05/02 08:00:27;;;;;;;7.03;4.50;;;11.80;99.90;;;;;;5041010;28;20036;-75
2021/05/02 08:02:53;;;;;;;7.20;4.10;;;12.00;99.90;;;;;;5021208;28;20059;-74
2021/05/02 08:05:20;;;;;;;8.65;4.53;;;11.80;99.90;;;;;;5022886;28;20033;-74
2021/05/02 08:07:45;;;;;;;7.90;4.82;;;12.00;99.90;;;;;;5036347;28;20026;-77
2021/05/02 08:10:12;;;;;;;9.32;5.63;;;12.60;99.90;;;;;;5037994;28;20037;-72
2021/05/02 08:12:38;;;;;;;9.73;5.20;;;12.60;99.90;;;;;;5034810;28;20128;-73
2021/05/02 08:15:05;;;;;;;7.28;4.47;;;12.60;99.90;;;;;;5037445;28;20411;-73
2021/05/02 08:17:30;;;;;;;6.72;5.03;;;11.90;99.90;;;;;;5042025;28;20104;-73
2021/05/02 08:19:56;;;;;;;7.97;5.63;;;12.40;99.90;;;;;;5039262;28;20123;-73
2021/05/02 08:22:21;;;;;;;7.75;5.60;;;12.70;99.90;;;;;;5019430;28;20056;-73
2021/05/02 08:24:47;;;;;;;8.27;5.65;;;12.40;99.90;;;;;;5040415;28;20125;-73
2021/05/02 08:27:13;;;;;;;7.45;5.97;;;12.10;99.90;;;;;;5039946;28;20653;-73
2021/05/02 08:29:39;;;;;;;8.10;5.82;;;12.10;99.90;;;;;;5037574;28;20063;-73
2021/05/02 08:32:04;;;;;;;8.13;5.50;;;12.40;99.90;;;;;;5039080;28;20030;-73
2021/05/02 08:34:30;;;;;;;7.05;5.03;;;12.60;99.90;;;;;;5040264;28;20052;-73
2021/05/02 08:36:56;;;;;;;6.95;5.10;;;12.80;99.90;;;;;;5040581;28;20056;-73
2021/05/02 08:39:21;;;;;;;8.63;6.15;;;13.30;99.90;;;;;;5022416;28;20079;-73
2021/05/02 08:41:47;;;;;;;10.25;6.18;;;13.50;99.90;;;;;;5039320;28;20033;-73
2021/05/02 08:44:14;;;;;;;8.43;5.13;;;13.90;99.90;;;;;;5037660;28;20122;-73
2021/05/02 08:46:40;;;;;;;8.13;6.07;;;13.90;99.90;;;;;;5046374;28;20044;-73
2021/05/02 08:49:06;;;;;;;9.30;5.70;;;13.30;99.90;;;;;;5038213;28;20033;-73
2021/05/02 08:51:32;;;;;;;9.15;5.72;;;12.80;99.90;;;;;;5037100;28;20136;-73
2021/05/02 08:53:58;;;;;;;9.90;6.38;;;12.90;99.90;;;;;;5028735;28;20039;-73
2021/05/02 08:56:24;;;;;;;10.23;6.45;;;12.20;99.90;;;;;;5041769;28;20491;-73
2021/05/02 08:58:49;;;;;;;8.45;6.13;;;12.10;99.90;;;;;;5042376;28;20104;-73
2021/05/02 09:01:28;;;;;;;8.70;6.03;;;12.20;99.90;;;;;;5044310;28;20032;-73
2021/05/02 09:03:54;;;;;;;9.52;6.13;;;12.50;99.90;;;;;;5043040;28;20040;-73
2021/05/02 09:06:26;;;;;;;8.98;5.95;;;12.00;99.90;;;;;;5044244;28;20036;-73
2021/05/02 09:08:56;;;;;;;7.78;5.88;;;11.90;99.90;;;;;;5039324;28;20037;-74
2021/05/02 09:11:42;;;;;;;7.68;5.65;;;11.60;99.90;;;;;;5039335;28;20049;-74
2021/05/02 09:14:16;;;;;;;9.38;6.95;;;12.20;99.90;;;;;;5041869;28;20071;-74
2021/05/02 09:16:46;;;;;;;11.13;6.97;;;12.10;99.90;;;;;;5047608;28;20029;-74
2021/05/02 09:19:12;;;;;;;10.40;8.13;;;12.10;99.90;;;;;;5042557;28;20029;-74
2021/05/02 09:21:38;;;;;;;13.18;9.02;;;12.20;99.90;;;;;;5032560;28;20029;-74
2021/05/02 09:24:07;;;;;;;11.95;8.95;;;12.30;99.90;;;;;;5044325;28;20435;-74
2021/05/02 09:26:36;;;;;;;10.68;7.85;;;11.90;99.90;;;;;;5036627;28;20556;-73
2021/05/02 09:29:06;;;;;;;10.60;8.43;;;11.20;99.90;;;;;;5031780;28;20434;-73
2021/05/02 09:31:36;;;;;;;13.07;9.43;;;11.30;99.90;;;;;;5037130;28;20036;-73
2021/05/02 09:34:21;;;;;;;12.23;8.48;;;11.30;99.90;;;;;;5044257;28;20116;-76
2021/05/02 09:36:56;;;;;;;11.75;9.23;;;11.30;99.90;;;;;;5045010;28;20033;-76
2021/05/02 09:39:41;;;;;;;13.20;7.90;;;11.70;99.90;;;;;;5041561;28;20044;-76
2021/05/02 09:42:18;;;;;;;11.52;7.13;;;11.00;99.90;;;;;;5039111;28;20033;-76
2021/05/02 09:44:48;;;;;;;8.55;6.57;;;11.30;99.90;;;;;;5044665;28;20034;-76
2021/05/02 09:47:32;;;;;;;8.60;6.25;;;11.40;99.90;;;;;;5040703;28;20059;-76
2021/05/02 09:50:11;;;;;;;8.93;6.20;;;11.70;99.90;;;;;;5038510;28;20038;-76
2021/05/02 09:52:45;;;;;;;10.18;6.88;;;11.60;99.90;;;;;;5023120;28;20441;-76
2021/05/02 09:55:37;;;;;;;9.10;6.43;;;11.60;99.90;;;;;;5031351;28;20398;-76
2021/05/02 09:58:08;;;;;;;14.25;7.55;;;11.60;99.90;;;;;;5033652;28;20419;-76
2021/05/02 10:00:50;;;;;;;9.93;5.20;;;11.40;99.90;;;;;;5036048;28;20527;-76
2021/05/02 10:03:17;;;;;;;10.23;7.20;;;11.40;99.90;;;;;;5031583;28;20036;-76
2021/05/02 10:06:03;;;;;;;9.75;6.53;;;11.20;99.90;;;;;;5031346;28;20394;-76
2021/05/02 10:08:47;;;;;;;8.60;5.78;;;10.80;99.90;;;;;;5036179;28;20040;-76
2021/05/02 10:11:14;;;;;;;8.18;5.30;;;10.70;99.90;;;;;;5033883;28;20029;-75
2021/05/02 10:13:40;;;;;;;8.35;5.68;;;10.50;99.90;;;;;;5036612;28;20494;-76
2021/05/02 10:16:07;;;;;;;7.38;5.30;;;10.10;99.90;;;;;;5034931;28;20033;-76
2021/05/02 10:18:33;;;;;;;6.43;4.70;;;10.10;99.90;;;;;;5030719;28;20247;-76
2021/05/02 10:20:59;;;;;;;7.43;5.32;;;10.10;99.90;;;;;;5031394;28;20032;-76
2021/05/02 10:23:24;;;;;;;8.20;6.22;;;10.00;99.90;;;;;;5033863;28;20171;-76
2021/05/02 10:25:55;;;;;;;7.13;5.05;;;10.10;99.90;;;;;;5033132;28;20048;-76
2021/05/02 10:28:28;;;;;;;8.60;4.55;;;10.00;99.90;;;;;;5039083;28;20147;-76
2021/05/02 10:30:59;;;;;;;8.25;5.35;;;9.90;99.90;;;;;;5034429;28;20034;-76
2021/05/02 10:33:42;;;;;;;7.32;4.70;;;10.00;99.90;;;;;;5035117;28;20037;-75
2021/05/02 10:36:22;;;;;;;17.35;9.88;;;10.20;99.90;;;;;;5038672;28;20047;-75
2021/05/02 10:38:48;;;;;;;10.75;5.43;;;10.40;99.90;;;;;;5038475;28;20033;-75
2021/05/02 10:41:25;;;;;;;7.43;4.35;;;10.60;99.90;;;;;;5037442;28;20033;-76
2021/05/02 10:43:57;;;;;;;5.70;3.65;;;10.70;99.90;;;;;;5033822;28;20029;-76
2021/05/02 10:46:41;;;;;;;6.15;3.97;;;10.80;99.90;;;;;;5036615;28;20048;-76
2021/05/02 10:49:08;;;;;;;7.15;3.40;;;10.90;99.90;;;;;;5036442;28;20350;-76
2021/05/02 10:51:34;;;;;;;5.57;3.50;;;11.00;99.90;;;;;;5035486;28;20025;-76
2021/05/02 10:54:22;;;;;;;5.55;3.30;;;11.00;99.90;;;;;;5035492;28;20053;-76
2021/05/02 10:56:56;;;;;;;5.70;3.28;;;11.10;99.90;;;;;;5031513;28;20029;-76
2021/05/02 10:59:27;;;;;;;5.70;3.42;;;10.90;99.90;;;;;;5035048;28;20112;-76
2021/05/02 11:01:54;;;;;;;7.75;3.30;;;10.80;99.90;;;;;;5035034;28;20029;-76
2021/05/02 11:04:40;;;;;;;5.05;3.05;;;10.80;99.90;;;;;;5036840;28;20037;-75
2021/05/02 11:07:05;;;;;;;5.03;3.17;;;10.90;99.90;;;;;;5035668;28;20065;-75
2021/05/02 11:09:52;;;;;;;5.63;3.53;;;11.10;99.90;;;;;;5034553;28;20045;-76
2021/05/02 11:12:26;;;;;;;5.32;3.30;;;11.10;99.90;;;;;;5033293;28;20029;-75
2021/05/02 11:14:52;;;;;;;5.60;2.97;;;11.20;99.90;;;;;;5037347;28;20048;-76
2021/05/02 11:17:19;;;;;;;6.72;3.45;;;11.30;99.90;;;;;;5031426;28;20029;-76
2021/05/02 11:19:45;;;;;;;5.95;2.95;;;11.30;99.90;;;;;;5034280;28;20024;-76
2021/05/02 11:22:11;;;;;;;5.90;3.45;;;11.40;99.90;;;;;;5032832;28;20041;-76
2021/05/02 11:24:40;;;;;;;6.03;2.45;;;11.70;99.90;;;;;;5032907;28;20091;-76
2021/05/02 11:30:04;;;;;;;6.22;3.33;;;11.80;99.90;;;;;;5033195;28;20737;-76
2021/05/02 11:32:29;;;;;;;4.72;2.38;;;11.80;99.90;;;;;;5030517;28;20029;-76
2021/05/02 11:34:58;;;;;;;6.40;3.22;;;12.10;99.90;;;;;;5030296;28;20099;-76
2021/05/02 11:37:45;;;;;;;5.60;2.90;;;12.10;99.90;;;;;;5035385;28;20379;-76
2021/05/02 11:42:59;;;;;;;5.15;2.45;;;12.30;99.90;;;;;;5031013;28;20073;-76
2021/05/02 11:45:29;;;;;;;5.13;2.70;;;12.60;99.90;;;;;;5031057;28;20161;-75
2021/05/02 11:47:55;;;;;;;6.45;3.65;;;12.60;99.90;;;;;;5033703;28;20029;-75
2021/05/02 11:50:22;;;;;;;6.28;3.55;;;12.60;98.30;;;;;;5036754;28;20040;-75
2021/05/02 11:52:52;;;;;;;5.38;2.90;;;12.50;99.90;;;;;;5027806;28;20029;-76
2021/05/02 11:55:33;;;;;;;7.70;4.20;;;12.80;99.90;;;;;;5034363;28;20037;-76
2021/05/02 11:58:04;;;;;;;10.48;5.32;;;13.00;99.90;;;;;;5033736;28;20032;-76
2021/05/02 12:00:43;;;;;;;5.55;3.75;;;12.90;99.90;;;;;;5035965;28;20033;-76
2021/05/02 12:03:11;;;;;;;12.93;5.32;;;12.40;99.90;;;;;;5031828;28;20268;-76
2021/05/02 12:05:54;;;;;;;6.85;4.00;;;12.30;99.90;;;;;;5030464;28;20083;-76
2021/05/02 12:08:25;;;;;;;7.28;3.95;;;11.60;99.90;;;;;;5036136;28;20033;-76
2021/05/02 12:11:05;;;;;;;9.52;4.20;;;11.50;99.90;;;;;;5034104;28;20033;-76
2021/05/02 12:13:40;;;;;;;8.75;4.15;;;10.60;99.90;;;;;;5034550;28;20677;-76
2021/05/02 12:16:12;;;;;;;10.73;5.32;;;10.70;99.90;;;;;;5031190;28;20068;-76
2021/05/02 12:19:06;;;;;;;7.00;4.55;;;10.40;99.90;;;;;;5033886;28;20035;-76
2021/05/02 12:21:42;;;;;;;10.07;4.82;;;10.50;99.90;;;;;;5031829;28;20049;-76
2021/05/02 12:24:10;;;;;;;5.20;3.33;;;10.10;99.90;;;;;;5036413;28;20044;-75
2021/05/02 12:26:47;;;;;;;5.20;3.50;;;10.00;99.90;;;;;;5031236;28;20037;-75
2021/05/02 12:29:25;;;;;;;6.80;4.03;;;9.80;99.90;;;;;;5026389;28;20037;-76
2021/05/02 12:32:00;;;;;;;6.93;4.60;;;9.90;99.90;;;;;;5033470;28;20037;-76
2021/05/02 12:34:34;;;;;;;6.63;4.55;;;9.70;99.90;;;;;;5029151;28;20367;-76
2021/05/02 12:37:07;;;;;;;7.65;5.43;;;9.50;99.90;;;;;;5031082;28;21221;-76
2021/05/02 12:39:34;;;;;;;8.05;5.30;;;9.00;99.90;;;;;;5032025;28;20044;-76
2021/05/02 12:42:00;;;;;;;8.93;5.63;;;9.10;99.90;;;;;;5029669;28;20052;-76
2021/05/02 12:44:27;;;;;;;8.85;6.82;;;9.20;99.90;;;;;;5030382;28;20376;-75
2021/05/02 12:46:56;;;;;;;9.45;6.72;;;9.20;99.90;;;;;;5030666;28;20514;-75
2021/05/02 12:49:23;;;;;;;9.05;6.30;;;9.50;99.90;;;;;;5031134;28;20071;-75
2021/05/02 12:51:54;;;;;;;11.45;7.10;;;9.60;99.90;;;;;;5029808;28;20036;-76
2021/05/02 12:54:31;;;;;;;7.65;5.95;;;9.90;99.90;;;;;;5034817;28;20040;-76
2021/05/02 12:57:12;;;;;;;10.38;5.78;;;10.10;99.90;;;;;;5035813;28;20037;-76
2021/05/02 12:59:56;;;;;;;7.30;5.43;;;10.00;99.90;;;;;;5041440;28;20026;-75
2021/05/02 13:02:23;;;;;;;8.57;5.80;;;10.10;99.90;;;;;;5039646;28;20021;-76
2021/05/02 13:04:58;;;;;;;6.60;4.95;;;10.50;99.90;;;;;;5034125;28;20030;-76
2021/05/02 13:07:39;;;;;;;8.07;5.70;;;10.40;99.90;;;;;;5040001;28;20469;-75
2021/05/02 13:10:07;;;;;;;6.63;4.87;;;10.60;99.90;;;;;;5036516;28;20037;-75